Time,TemperatureF,DewpointF,PressureIn,WindDirection,WindDirectionDegrees,WindSpeedMPH,WindSpeedGustMPH,Humidity,HourlyPrecipIn,Conditions,Clouds,dailyrainin,SoftwareType,DateUTC
2013-04-25 00:02:00,46.9,32.9,28.79,ESE,113,4.0,7.0,58,0.00,,,0.00,meteohub,2013-04-25 05:02:00,
2013-04-25 00:07:00,47.3,32.9,28.80,East,90,4.0,7.0,57,0.00,,,0.00,meteohub,2013-04-25 05:07:00,
2013-04-25 00:12:00,47.8,32.9,28.80,East,90,7.0,8.0,56,0.00,,,0.00,meteohub,2013-04-25 05:12:00,
2013-04-25 00:17:00,48.0,32.2,28.80,NE,45,6.0,8.0,54,0.00,,,0.00,meteohub,2013-04-25 05:17:00,
2013-04-25 00:22:00,47.8,32.5,28.80,East,90,4.0,8.0,55,0.00,,,0.00,meteohub,2013-04-25 05:22:00,
2013-04-25 00:27:00,47.7,32.7,28.80,East,90,6.0,7.0,56,0.00,,,0.00,meteohub,2013-04-25 05:27:00,
2013-04-25 00:32:00,47.3,32.4,28.80,East,90,4.0,7.0,56,0.00,,,0.00,meteohub,2013-04-25 05:32:00,
2013-04-25 00:37:00,47.3,32.4,28.80,NE,45,5.0,7.0,56,0.00,,,0.00,meteohub,2013-04-25 05:37:00,
2013-04-25 00:42:00,46.8,31.8,28.81,East,90,4.0,7.0,56,0.00,,,0.00,meteohub,2013-04-25 05:42:00,
2013-04-25 00:47:00,46.9,32.5,28.81,East,90,4.0,7.0,57,0.00,,,0.00,meteohub,2013-04-25 05:47:00,
2013-04-25 00:52:00,46.8,32.4,28.81,East,90,5.0,7.0,57,0.00,,,0.00,meteohub,2013-04-25 05:52:00,
2013-04-25 00:57:00,46.8,32.4,28.81,East,90,4.0,5.0,57,0.00,,,0.00,meteohub,2013-04-25 05:57:00,
2013-04-25 01:02:00,46.8,32.4,28.81,East,90,4.0,6.0,57,0.00,,,0.00,meteohub,2013-04-25 06:02:00,
2013-04-25 01:07:00,46.6,32.2,28.81,East,90,7.0,7.0,57,0.00,,,0.00,meteohub,2013-04-25 06:07:00,
2013-04-25 01:12:00,46.4,32.0,28.81,East,90,4.0,8.0,57,0.00,,,0.00,meteohub,2013-04-25 06:12:00,
2013-04-25 01:17:00,46.4,32.0,28.81,East,90,5.0,8.0,57,0.00,,,0.00,meteohub,2013-04-25 06:17:00,
2013-04-25 01:22:00,46.4,32.4,28.81,East,90,6.0,8.0,58,0.00,,,0.00,meteohub,2013-04-25 06:22:00,
2013-04-25 01:27:00,46.4,32.4,28.81,East,90,5.0,7.0,58,0.00,,,0.00,meteohub,2013-04-25 06:27:00,
2013-04-25 01:32:00,46.4,32.4,28.81,East,90,6.0,7.0,58,0.00,,,0.00,meteohub,2013-04-25 06:32:00,
2013-04-25 01:37:00,46.0,32.0,28.81,SE,135,5.0,8.0,58,0.00,,,0.00,meteohub,2013-04-25 06:37:00,
2013-04-25 01:42:00,46.2,32.2,28.81,East,90,4.0,8.0,58,0.00,,,0.00,meteohub,2013-04-25 06:42:00,
2013-04-25 01:47:00,46.0,32.0,28.81,SE,135,4.0,8.0,58,0.00,,,0.00,meteohub,2013-04-25 06:47:00,
2013-04-25 01:52:00,45.9,32.0,28.81,SE,135,4.0,6.0,58,0.00,,,0.00,meteohub,2013-04-25 06:52:00,
2013-04-25 01:57:00,45.9,32.0,28.81,East,90,4.0,6.0,58,0.00,,,0.00,meteohub,2013-04-25 06:57:00,
2013-04-25 02:02:00,45.9,32.0,28.81,East,90,4.0,6.0,58,0.00,,,0.00,meteohub,2013-04-25 07:02:00,
2013-04-25 02:07:00,46.2,31.8,28.81,East,90,4.0,6.0,57,0.00,,,0.00,meteohub,2013-04-25 07:07:00,
2013-04-25 02:12:00,46.0,31.6,28.81,East,90,4.0,5.0,57,0.00,,,0.00,meteohub,2013-04-25 07:12:00,
2013-04-25 02:17:00,46.2,31.8,28.81,East,90,4.0,6.0,57,0.00,,,0.00,meteohub,2013-04-25 07:17:00,
2013-04-25 02:22:00,45.7,31.3,28.80,East,90,4.0,6.0,57,0.00,,,0.00,meteohub,2013-04-25 07:22:00,
2013-04-25 02:27:00,45.9,31.5,28.80,East,90,4.0,6.0,57,0.00,,,0.00,meteohub,2013-04-25 07:27:00,
2013-04-25 02:32:00,45.7,31.3,28.80,East,90,4.0,4.0,57,0.00,,,0.00,meteohub,2013-04-25 07:32:00,
2013-04-25 02:37:00,45.1,31.3,28.80,East,90,4.0,4.0,58,0.00,,,0.00,meteohub,2013-04-25 07:37:00,
2013-04-25 02:42:00,45.0,31.5,28.80,East,90,3.0,4.0,59,0.00,,,0.00,meteohub,2013-04-25 07:42:00,
2013-04-25 02:47:00,44.6,31.6,28.80,East,90,3.0,4.0,60,0.00,,,0.00,meteohub,2013-04-25 07:47:00,
2013-04-25 02:52:00,44.6,32.0,28.80,East,90,3.0,4.0,61,0.00,,,0.00,meteohub,2013-04-25 07:52:00,
2013-04-25 02:57:00,44.1,31.5,28.80,East,90,2.0,4.0,61,0.00,,,0.00,meteohub,2013-04-25 07:57:00,
2013-04-25 03:03:00,44.1,31.8,28.79,East,90,3.0,4.0,62,0.00,,,0.00,meteohub,2013-04-25 08:03:00,
2013-04-25 03:08:00,44.1,31.5,28.80,East,90,4.0,4.0,61,0.00,,,0.00,meteohub,2013-04-25 08:08:00,
2013-04-25 03:13:00,44.4,31.8,28.80,East,90,4.0,4.0,61,0.00,,,0.00,meteohub,2013-04-25 08:13:00,
2013-04-25 03:18:00,44.2,31.6,28.80,East,90,0.0,4.0,61,0.00,,,0.00,meteohub,2013-04-25 08:18:00,
2013-04-25 03:23:00,44.1,31.5,28.79,East,90,0.0,4.0,61,0.00,,,0.00,meteohub,2013-04-25 08:23:00,
2013-04-25 03:28:00,43.9,31.3,28.79,East,90,0.0,4.0,61,0.00,,,0.00,meteohub,2013-04-25 08:28:00,
2013-04-25 03:33:00,43.7,31.1,28.80,NE,45,1.0,1.0,61,0.00,,,0.00,meteohub,2013-04-25 08:33:00,
2013-04-25 03:38:00,43.3,30.7,28.80,East,90,0.0,1.0,61,0.00,,,0.00,meteohub,2013-04-25 08:38:00,
2013-04-25 03:43:00,43.2,31.1,28.80,South,180,0.0,1.0,62,0.00,,,0.00,meteohub,2013-04-25 08:43:00,
2013-04-25 03:48:00,43.0,30.9,28.81,South,180,0.0,1.0,62,0.00,,,0.00,meteohub,2013-04-25 08:48:00,
2013-04-25 03:53:00,42.6,30.9,28.81,NE,45,0.0,0.0,63,0.00,,,0.00,meteohub,2013-04-25 08:53:00,
2013-04-25 03:58:00,42.1,30.7,28.81,NE,45,0.0,0.0,64,0.00,,,0.00,meteohub,2013-04-25 08:58:00,
2013-04-25 04:03:00,41.9,30.6,28.81,NE,45,0.0,0.0,64,0.00,,,0.00,meteohub,2013-04-25 09:03:00,
2013-04-25 04:08:00,41.7,30.7,28.80,SW,225,0.0,0.0,65,0.00,,,0.00,meteohub,2013-04-25 09:08:00,
2013-04-25 04:13:00,41.7,31.3,28.80,North,0,0.0,0.0,66,0.00,,,0.00,meteohub,2013-04-25 09:13:00,
2013-04-25 04:18:00,41.4,30.9,28.80,SW,225,0.0,0.0,66,0.00,,,0.00,meteohub,2013-04-25 09:18:00,
2013-04-25 04:23:00,41.0,30.9,28.80,West,270,0.0,0.0,67,0.00,,,0.00,meteohub,2013-04-25 09:23:00,
2013-04-25 04:28:00,40.6,30.6,28.80,NW,315,0.0,0.0,67,0.00,,,0.00,meteohub,2013-04-25 09:28:00,
2013-04-25 04:33:00,39.6,29.8,28.80,NW,315,1.0,2.0,68,0.00,,,0.00,meteohub,2013-04-25 09:33:00,
2013-04-25 04:38:00,39.2,29.5,28.80,North,0,0.0,2.0,68,0.00,,,0.00,meteohub,2013-04-25 09:38:00,
2013-04-25 04:43:00,38.7,29.3,28.80,North,0,0.0,2.0,69,0.00,,,0.00,meteohub,2013-04-25 09:43:00,
2013-04-25 04:48:00,38.7,29.7,28.80,North,0,0.0,1.0,70,0.00,,,0.00,meteohub,2013-04-25 09:48:00,
2013-04-25 04:53:00,38.7,30.0,28.80,North,0,0.0,0.0,71,0.00,,,0.00,meteohub,2013-04-25 09:53:00,
2013-04-25 04:58:00,38.7,30.4,28.80,NW,315,0.0,0.0,72,0.00,,,0.00,meteohub,2013-04-25 09:58:00,
2013-04-25 05:03:00,39.4,31.5,28.80,North,0,0.0,0.0,73,0.00,,,0.00,meteohub,2013-04-25 10:03:00,
2013-04-25 05:08:00,39.7,31.5,28.80,North,0,0.0,0.0,72,0.00,,,0.00,meteohub,2013-04-25 10:08:00,
2013-04-25 05:13:00,39.7,31.1,28.81,North,0,0.0,0.0,71,0.00,,,0.00,meteohub,2013-04-25 10:13:00,
2013-04-25 05:18:00,39.6,30.9,28.80,North,0,0.0,0.0,71,0.00,,,0.00,meteohub,2013-04-25 10:18:00,
2013-04-25 05:23:00,39.4,30.7,28.81,NE,45,0.0,0.0,71,0.00,,,0.00,meteohub,2013-04-25 10:23:00,
2013-04-25 05:28:00,39.2,30.9,28.80,NE,45,0.0,1.0,72,0.00,,,0.00,meteohub,2013-04-25 10:28:00,
2013-04-25 05:33:00,39.2,30.9,28.80,NE,45,0.0,1.0,72,0.00,,,0.00,meteohub,2013-04-25 10:33:00,
2013-04-25 05:38:00,39.2,30.9,28.81,South,180,0.0,1.0,72,0.00,,,0.00,meteohub,2013-04-25 10:38:00,
2013-04-25 05:44:00,39.4,31.1,28.80,NE,45,0.0,0.0,72,0.00,,,0.00,meteohub,2013-04-25 10:44:00,
2013-04-25 05:49:00,39.0,30.7,28.81,NE,45,0.0,0.0,72,0.00,,,0.00,meteohub,2013-04-25 10:49:00,
2013-04-25 05:54:00,39.6,31.3,28.80,NE,45,0.0,0.0,72,0.00,,,0.00,meteohub,2013-04-25 10:54:00,
2013-04-25 05:59:00,39.9,31.6,28.80,NE,45,0.0,0.0,72,0.00,,,0.00,meteohub,2013-04-25 10:59:00,
2013-04-25 06:04:00,39.9,31.6,28.80,NE,45,0.0,0.0,72,0.00,,,0.00,meteohub,2013-04-25 11:04:00,
2013-04-25 06:09:00,40.1,31.5,28.81,East,90,0.0,0.0,71,0.00,,,0.00,meteohub,2013-04-25 11:09:00,
2013-04-25 06:14:00,40.3,31.6,28.81,East,90,0.0,0.0,71,0.00,,,0.00,meteohub,2013-04-25 11:14:00,
2013-04-25 06:19:00,40.5,31.5,28.80,South,180,0.0,0.0,70,0.00,,,0.00,meteohub,2013-04-25 11:19:00,
2013-04-25 06:24:00,40.1,31.1,28.80,South,180,0.0,0.0,70,0.00,,,0.00,meteohub,2013-04-25 11:24:00,
2013-04-25 06:29:00,39.9,30.9,28.80,South,180,0.0,0.0,70,0.00,,,0.00,meteohub,2013-04-25 11:29:00,
2013-04-25 06:34:00,39.7,31.1,28.81,South,180,0.0,0.0,71,0.00,,,0.00,meteohub,2013-04-25 11:34:00,
2013-04-25 06:39:00,39.6,30.9,28.81,SW,225,0.0,0.0,71,0.00,,,0.00,meteohub,2013-04-25 11:39:00,
2013-04-25 06:44:00,39.0,30.7,28.81,SW,225,0.0,0.0,72,0.00,,,0.00,meteohub,2013-04-25 11:44:00,
2013-04-25 06:49:00,38.8,30.9,28.81,NW,315,0.0,0.0,73,0.00,,,0.00,meteohub,2013-04-25 11:49:00,
2013-04-25 06:54:00,38.8,30.9,28.81,NW,315,0.0,0.0,73,0.00,,,0.00,meteohub,2013-04-25 11:54:00,
2013-04-25 06:59:00,37.9,30.0,28.81,NW,315,0.0,0.0,73,0.00,,,0.00,meteohub,2013-04-25 11:59:00,
2013-04-25 07:04:00,37.2,29.3,28.82,NW,315,0.0,0.0,73,0.00,,,0.00,meteohub,2013-04-25 12:04:00,
2013-04-25 07:09:00,36.3,28.8,28.82,NW,315,0.0,0.0,74,0.00,,,0.00,meteohub,2013-04-25 12:09:00,
2013-04-25 07:14:00,36.3,29.5,28.82,North,0,0.0,0.0,76,0.00,,,0.00,meteohub,2013-04-25 12:14:00,
2013-04-25 07:19:00,37.0,30.6,28.82,North,0,0.0,0.0,77,0.00,,,0.00,meteohub,2013-04-25 12:19:00,
2013-04-25 07:24:00,37.6,31.1,28.82,North,0,0.0,0.0,77,0.00,,,0.00,meteohub,2013-04-25 12:24:00,
2013-04-25 07:29:00,38.3,31.5,28.82,North,0,0.0,0.0,76,0.00,,,0.00,meteohub,2013-04-25 12:29:00,
2013-04-25 07:34:00,39.0,32.2,28.82,North,0,0.0,0.0,76,0.00,,,0.00,meteohub,2013-04-25 12:34:00,
2013-04-25 07:39:00,39.7,32.5,28.82,NW,315,0.0,0.0,75,0.00,,,0.00,meteohub,2013-04-25 12:39:00,
2013-04-25 07:44:00,40.5,32.9,28.82,NE,45,0.0,0.0,74,0.00,,,0.00,meteohub,2013-04-25 12:44:00,
2013-04-25 07:49:00,41.5,33.6,28.82,SE,135,0.0,0.0,73,0.00,,,0.00,meteohub,2013-04-25 12:49:00,
2013-04-25 07:54:00,42.8,34.0,28.82,North,0,0.0,0.0,71,0.00,,,0.00,meteohub,2013-04-25 12:54:00,
2013-04-25 07:59:00,43.9,34.3,28.82,North,0,0.0,0.0,69,0.00,,,0.00,meteohub,2013-04-25 12:59:00,
2013-04-25 08:05:00,44.2,34.3,28.82,North,0,0.0,0.0,68,0.00,,,0.00,meteohub,2013-04-25 13:05:00,
2013-04-25 08:10:00,44.6,34.0,28.82,South,180,0.0,0.0,66,0.00,,,0.00,meteohub,2013-04-25 13:10:00,
2013-04-25 08:15:00,45.1,34.2,28.82,South,180,0.0,0.0,65,0.00,,,0.00,meteohub,2013-04-25 13:15:00,
2013-04-25 08:20:00,45.9,34.7,28.82,NE,45,0.0,0.0,65,0.00,,,0.00,meteohub,2013-04-25 13:20:00,
2013-04-25 08:25:00,46.6,35.4,28.82,North,0,0.0,0.0,65,0.00,,,0.00,meteohub,2013-04-25 13:25:00,
2013-04-25 08:30:00,46.6,35.1,28.82,East,90,0.0,0.0,64,0.00,,,0.00,meteohub,2013-04-25 13:30:00,
2013-04-25 08:35:00,46.9,35.4,28.82,SE,135,0.0,0.0,64,0.00,,,0.00,meteohub,2013-04-25 13:35:00,
2013-04-25 08:40:00,47.3,35.4,28.81,East,90,1.0,1.0,63,0.00,,,0.00,meteohub,2013-04-25 13:40:00,
2013-04-25 08:45:00,47.7,35.2,28.81,North,0,0.0,1.0,62,0.00,,,0.00,meteohub,2013-04-25 13:45:00,
2013-04-25 08:50:00,48.4,35.6,28.81,SW,225,0.0,1.0,61,0.00,,,0.00,meteohub,2013-04-25 13:50:00,
2013-04-25 08:55:00,49.1,34.9,28.81,SE,135,1.0,1.0,58,0.00,,,0.00,meteohub,2013-04-25 13:55:00,
2013-04-25 09:00:00,49.5,34.0,28.81,South,180,1.0,1.0,55,0.00,,,0.00,meteohub,2013-04-25 14:00:00,
2013-04-25 09:05:00,49.8,34.3,28.81,South,180,0.0,1.0,55,0.00,,,0.00,meteohub,2013-04-25 14:05:00,
2013-04-25 09:10:00,50.4,34.3,28.81,East,90,1.0,1.0,54,0.00,,,0.00,meteohub,2013-04-25 14:10:00,
2013-04-25 09:15:00,50.9,34.3,28.80,SE,135,1.0,1.0,53,0.00,,,0.00,meteohub,2013-04-25 14:15:00,
2013-04-25 09:20:00,51.1,34.5,28.80,East,90,1.0,1.0,53,0.00,,,0.00,meteohub,2013-04-25 14:20:00,
2013-04-25 09:25:00,51.3,34.2,28.80,SE,135,1.0,1.0,52,0.00,,,0.00,meteohub,2013-04-25 14:25:00,
2013-04-25 09:30:00,51.3,34.2,28.80,SE,135,1.0,1.0,52,0.00,,,0.00,meteohub,2013-04-25 14:30:00,
2013-04-25 09:35:00,51.8,34.7,28.80,North,0,1.0,1.0,52,0.00,,,0.00,meteohub,2013-04-25 14:35:00,
2013-04-25 09:40:00,53.2,35.6,28.80,East,90,0.0,1.0,51,0.00,,,0.00,meteohub,2013-04-25 14:40:00,
2013-04-25 09:45:00,53.6,34.9,28.79,SE,135,1.0,1.0,49,0.00,,,0.00,meteohub,2013-04-25 14:45:00,
2013-04-25 09:50:00,53.4,32.5,28.79,South,180,1.0,1.0,45,0.00,,,0.00,meteohub,2013-04-25 14:50:00,
2013-04-25 09:55:00,54.3,33.4,28.79,SE,135,1.0,1.0,45,0.00,,,0.00,meteohub,2013-04-25 14:55:00,
2013-04-25 10:00:00,54.5,34.2,28.80,East,90,1.0,2.0,46,0.00,,,0.00,meteohub,2013-04-25 15:00:00,
2013-04-25 10:05:00,54.7,33.8,28.80,East,90,1.0,2.0,45,0.00,,,0.00,meteohub,2013-04-25 15:05:00,
2013-04-25 10:10:00,55.2,34.9,28.79,East,90,1.0,2.0,46,0.00,,,0.00,meteohub,2013-04-25 15:10:00,
2013-04-25 10:15:00,55.4,33.8,28.80,South,180,1.0,2.0,44,0.00,,,0.00,meteohub,2013-04-25 15:15:00,
2013-04-25 10:20:00,55.8,34.2,28.80,East,90,1.0,4.0,44,0.00,,,0.00,meteohub,2013-04-25 15:20:00,
2013-04-25 10:25:00,55.9,34.3,28.80,SSE,158,1.0,4.0,44,0.00,,,0.00,meteohub,2013-04-25 15:25:00,
2013-04-25 10:30:00,56.1,34.0,28.80,SE,135,1.0,4.0,43,0.00,,,0.00,meteohub,2013-04-25 15:30:00,
2013-04-25 10:35:00,56.3,34.2,28.80,East,90,5.0,5.0,43,0.00,,,0.00,meteohub,2013-04-25 15:35:00,
2013-04-25 10:40:00,57.2,34.3,28.81,SE,135,2.0,5.0,42,0.00,,,0.00,meteohub,2013-04-25 15:40:00,
2013-04-25 10:45:00,57.6,32.7,28.80,South,180,1.0,5.0,39,0.00,,,0.00,meteohub,2013-04-25 15:45:00,
2013-04-25 10:50:00,58.3,34.0,28.80,East,90,7.0,7.0,40,0.00,,,0.00,meteohub,2013-04-25 15:50:00,
2013-04-25 10:56:00,58.8,32.5,28.80,South,180,2.0,7.0,37,0.00,,,0.00,meteohub,2013-04-25 15:56:00,
2013-04-25 11:01:00,59.0,32.0,28.80,SE,135,7.0,7.0,36,0.00,,,0.00,meteohub,2013-04-25 16:01:00,
2013-04-25 11:06:00,59.7,32.0,28.80,SE,135,1.0,7.0,35,0.00,,,0.00,meteohub,2013-04-25 16:06:00,
2013-04-25 11:11:00,59.9,32.2,28.81,South,180,6.0,7.0,35,0.00,,,0.00,meteohub,2013-04-25 16:11:00,
2013-04-25 11:16:00,60.4,32.7,28.81,SSW,203,6.0,7.0,35,0.00,,,0.00,meteohub,2013-04-25 16:16:00,
2013-04-25 11:21:00,60.4,32.7,28.81,SE,135,6.0,8.0,35,0.00,,,0.00,meteohub,2013-04-25 16:21:00,
2013-04-25 11:26:00,60.6,31.3,28.80,South,180,7.0,8.0,33,0.00,,,0.00,meteohub,2013-04-25 16:26:00,
2013-04-25 11:31:00,61.2,31.8,28.80,SSE,158,6.0,8.0,33,0.00,,,0.00,meteohub,2013-04-25 16:31:00,
2013-04-25 11:36:00,60.6,30.6,28.80,SE,135,5.0,8.0,32,0.00,,,0.00,meteohub,2013-04-25 16:36:00,
2013-04-25 11:41:00,61.0,30.9,28.80,SW,225,5.0,8.0,32,0.00,,,0.00,meteohub,2013-04-25 16:41:00,
2013-04-25 11:46:00,61.5,32.9,28.80,SW,225,4.0,8.0,34,0.00,,,0.00,meteohub,2013-04-25 16:46:00,
2013-04-25 11:51:00,62.1,31.8,28.80,SE,135,4.0,9.0,32,0.00,,,0.00,meteohub,2013-04-25 16:51:00,
2013-04-25 11:56:00,63.0,29.3,28.80,SE,135,8.0,13.0,28,0.00,,,0.00,meteohub,2013-04-25 16:56:00,
2013-04-25 12:01:00,63.0,27.5,28.80,SE,135,8.0,13.0,26,0.00,,,0.00,meteohub,2013-04-25 17:01:00,
2013-04-25 12:06:00,63.5,27.0,28.80,East,90,7.0,11.0,25,0.00,,,0.00,meteohub,2013-04-25 17:06:00,
2013-04-25 12:11:00,63.3,28.8,28.80,South,180,6.0,12.0,27,0.00,,,0.00,meteohub,2013-04-25 17:11:00,
2013-04-25 12:16:00,63.1,29.5,28.80,SE,135,6.0,12.0,28,0.00,,,0.00,meteohub,2013-04-25 17:16:00,
2013-04-25 12:21:00,63.5,28.0,28.79,South,180,8.0,12.0,26,0.00,,,0.00,meteohub,2013-04-25 17:21:00,
2013-04-25 12:26:00,63.3,30.6,28.79,SE,135,11.0,11.0,29,0.00,,,0.00,meteohub,2013-04-25 17:26:00,
2013-04-25 12:31:00,63.1,30.4,28.79,East,90,4.0,11.0,29,0.00,,,0.00,meteohub,2013-04-25 17:31:00,
2013-04-25 12:36:00,64.4,31.5,28.79,East,90,7.0,11.0,29,0.00,,,0.00,meteohub,2013-04-25 17:36:00,
2013-04-25 12:41:00,64.4,30.6,28.79,East,90,8.0,11.0,28,0.00,,,0.00,meteohub,2013-04-25 17:41:00,
2013-04-25 12:46:00,64.8,31.8,28.79,East,90,2.0,11.0,29,0.00,,,0.00,meteohub,2013-04-25 17:46:00,
2013-04-25 12:51:00,64.8,30.0,28.79,South,180,9.0,11.0,27,0.00,,,0.00,meteohub,2013-04-25 17:51:00,
2013-04-25 12:56:00,63.9,30.2,28.78,South,180,4.0,11.0,28,0.00,,,0.00,meteohub,2013-04-25 17:56:00,
2013-04-25 13:01:00,64.4,31.5,28.78,East,90,7.0,11.0,29,0.00,,,0.00,meteohub,2013-04-25 18:01:00,
2013-04-25 13:06:00,64.6,30.7,28.78,SE,135,5.0,9.0,28,0.00,,,0.00,meteohub,2013-04-25 18:06:00,
2013-04-25 13:11:00,64.0,30.2,28.78,South,180,8.0,8.0,28,0.00,,,0.00,meteohub,2013-04-25 18:11:00,
2013-04-25 13:16:00,64.2,30.4,28.77,East,90,8.0,11.0,28,0.00,,,0.00,meteohub,2013-04-25 18:16:00,
2013-04-25 13:21:00,64.4,30.6,28.77,South,180,1.0,11.0,28,0.00,,,0.00,meteohub,2013-04-25 18:21:00,
2013-04-25 13:26:00,64.2,31.3,28.77,East,90,8.0,11.0,29,0.00,,,0.00,meteohub,2013-04-25 18:26:00,
2013-04-25 13:31:00,64.2,29.5,28.76,SE,135,6.0,8.0,27,0.00,,,0.00,meteohub,2013-04-25 18:31:00,
2013-04-25 13:36:00,64.4,30.6,28.76,SE,135,1.0,8.0,28,0.00,,,0.00,meteohub,2013-04-25 18:36:00,
2013-04-25 13:41:00,64.0,30.2,28.75,SE,135,2.0,8.0,28,0.00,,,0.00,meteohub,2013-04-25 18:41:00,
2013-04-25 13:46:00,63.9,31.8,28.74,SE,135,2.0,6.0,30,0.00,,,0.00,meteohub,2013-04-25 18:46:00,
2013-04-25 13:51:00,64.0,32.0,28.74,East,90,8.0,8.0,30,0.00,,,0.00,meteohub,2013-04-25 18:51:00,
2013-04-25 13:56:00,63.9,31.8,28.72,East,90,10.0,11.0,30,0.00,,,0.00,meteohub,2013-04-25 18:56:00,
2013-04-25 14:01:00,65.3,31.3,28.73,SE,135,13.0,13.0,28,0.00,,,0.00,meteohub,2013-04-25 19:01:00,
2013-04-25 14:06:00,66.4,29.5,28.73,East,90,8.0,13.0,25,0.00,,,0.00,meteohub,2013-04-25 19:06:00,
2013-04-25 14:11:00,66.6,29.7,28.74,East,90,6.0,13.0,25,0.00,,,0.00,meteohub,2013-04-25 19:11:00,
2013-04-25 14:16:00,66.7,26.6,28.74,East,90,13.0,13.0,22,0.00,,,0.00,meteohub,2013-04-25 19:16:00,
2013-04-25 14:21:00,66.9,24.6,28.75,SE,135,7.0,13.0,20,0.00,,,0.00,meteohub,2013-04-25 19:21:00,
2013-04-25 14:26:00,65.7,24.6,28.75,East,90,9.0,13.0,21,0.00,,,0.00,meteohub,2013-04-25 19:26:00,
2013-04-25 14:32:00,66.4,25.3,28.75,East,90,8.0,13.0,21,0.00,,,0.00,meteohub,2013-04-25 19:32:00,
2013-04-25 14:37:00,66.7,25.5,28.74,East,90,8.0,12.0,21,0.00,,,0.00,meteohub,2013-04-25 19:37:00,
2013-04-25 14:41:00,67.1,22.1,28.74,SE,135,8.0,11.0,18,0.00,,,0.00,meteohub,2013-04-25 19:41:00,
2013-04-25 14:46:00,67.1,23.5,28.74,SE,135,9.0,11.0,19,0.00,,,0.00,meteohub,2013-04-25 19:46:00,
2013-04-25 14:52:00,68.0,22.8,28.73,SE,135,8.0,12.0,18,0.00,,,0.00,meteohub,2013-04-25 19:52:00,
2013-04-25 14:57:00,67.8,22.8,28.72,East,90,8.0,13.0,18,0.00,,,0.00,meteohub,2013-04-25 19:57:00,
2013-04-25 15:02:00,68.4,21.9,28.72,East,90,10.0,13.0,17,0.00,,,0.00,meteohub,2013-04-25 20:02:00,
2013-04-25 15:07:00,68.7,19.2,28.72,East,90,8.0,14.0,15,0.00,,,0.00,meteohub,2013-04-25 20:07:00,
2013-04-25 15:12:00,69.3,19.6,28.71,East,90,10.0,14.0,15,0.00,,,0.00,meteohub,2013-04-25 20:12:00,
2013-04-25 15:17:00,69.8,14.9,28.71,South,180,9.0,12.0,12,0.00,,,0.00,meteohub,2013-04-25 20:17:00,
2013-04-25 15:22:00,69.6,16.5,28.70,South,180,15.0,15.0,13,0.00,,,0.00,meteohub,2013-04-25 20:22:00,
2013-04-25 15:27:00,69.1,14.4,28.70,SE,135,15.0,19.0,12,0.00,,,0.00,meteohub,2013-04-25 20:27:00,
2013-04-25 15:32:00,68.5,13.8,28.69,East,90,16.0,19.0,12,0.00,,,0.00,meteohub,2013-04-25 20:32:00,
2013-04-25 15:37:00,68.0,17.1,28.69,SE,135,12.0,19.0,14,0.00,,,0.00,meteohub,2013-04-25 20:37:00,
2013-04-25 15:42:00,68.4,17.2,28.68,East,90,15.0,17.0,14,0.00,,,0.00,meteohub,2013-04-25 20:42:00,
2013-04-25 15:47:00,69.4,18.1,28.69,East,90,15.0,16.0,14,0.00,,,0.00,meteohub,2013-04-25 20:47:00,
2013-04-25 15:52:00,69.8,20.1,28.69,East,90,15.0,16.0,15,0.00,,,0.00,meteohub,2013-04-25 20:52:00,
2013-04-25 15:57:00,69.3,16.3,28.68,East,90,16.0,17.0,13,0.00,,,0.00,meteohub,2013-04-25 20:57:00,
2013-04-25 16:02:00,68.9,17.8,28.68,SE,135,16.0,17.0,14,0.00,,,0.00,meteohub,2013-04-25 21:02:00,
2013-04-25 16:07:00,69.1,18.0,28.68,East,90,15.0,17.0,14,0.00,,,0.00,meteohub,2013-04-25 21:07:00,
2013-04-25 16:12:00,69.1,16.2,28.67,NE,45,15.0,16.0,13,0.00,,,0.00,meteohub,2013-04-25 21:12:00,
2013-04-25 16:17:00,69.1,16.2,28.66,SE,135,11.0,16.0,13,0.00,,,0.00,meteohub,2013-04-25 21:17:00,
2013-04-25 16:22:00,69.3,14.5,28.67,South,180,10.0,15.0,12,0.00,,,0.00,meteohub,2013-04-25 21:22:00,
2013-04-25 16:27:00,70.2,17.1,28.66,East,90,15.0,16.0,13,0.00,,,0.00,meteohub,2013-04-25 21:27:00,
2013-04-25 16:32:00,70.0,16.9,28.65,East,90,15.0,17.0,13,0.00,,,0.00,meteohub,2013-04-25 21:32:00,
2013-04-25 16:37:00,69.6,14.7,28.64,NE,45,14.0,17.0,12,0.00,,,0.00,meteohub,2013-04-25 21:37:00,
2013-04-25 16:42:00,69.8,18.5,28.64,NE,45,10.0,17.0,14,0.00,,,0.00,meteohub,2013-04-25 21:42:00,
2013-04-25 16:47:00,70.0,15.1,28.63,East,90,12.0,17.0,12,0.00,,,0.00,meteohub,2013-04-25 21:47:00,
2013-04-25 16:52:00,70.3,17.2,28.64,East,90,10.0,15.0,13,0.00,,,0.00,meteohub,2013-04-25 21:52:00,
2013-04-25 16:57:00,69.8,16.7,28.64,East,90,10.0,17.0,13,0.00,,,0.00,meteohub,2013-04-25 21:57:00,
2013-04-25 17:02:00,70.0,18.5,28.63,SE,135,11.0,18.0,14,0.00,,,0.00,meteohub,2013-04-25 22:02:00,
2013-04-25 17:07:00,70.2,17.1,28.63,East,90,15.0,18.0,13,0.00,,,0.00,meteohub,2013-04-25 22:07:00,
2013-04-25 17:12:00,69.8,20.1,28.63,East,90,12.0,18.0,15,0.00,,,0.00,meteohub,2013-04-25 22:12:00,
2013-04-25 17:17:00,69.4,18.1,28.63,SE,135,16.0,18.0,14,0.00,,,0.00,meteohub,2013-04-25 22:17:00,
2013-04-25 17:22:00,69.8,20.1,28.63,SE,135,11.0,17.0,15,0.00,,,0.00,meteohub,2013-04-25 22:22:00,
2013-04-25 17:27:00,69.6,19.9,28.63,SSW,203,17.0,17.0,15,0.00,,,0.00,meteohub,2013-04-25 22:27:00,
2013-04-25 17:32:00,69.8,18.5,28.63,SE,135,12.0,17.0,14,0.00,,,0.00,meteohub,2013-04-25 22:32:00,
2013-04-25 17:37:00,70.0,18.5,28.62,East,90,18.0,18.0,14,0.00,,,0.00,meteohub,2013-04-25 22:37:00,
2013-04-25 17:42:00,69.1,19.4,28.62,East,90,11.0,18.0,15,0.00,,,0.00,meteohub,2013-04-25 22:42:00,
2013-04-25 17:47:00,69.1,21.0,28.62,East,90,11.0,18.0,16,0.00,,,0.00,meteohub,2013-04-25 22:47:00,
2013-04-25 17:52:00,69.1,21.0,28.62,East,90,9.0,18.0,16,0.00,,,0.00,meteohub,2013-04-25 22:52:00,
2013-04-25 17:57:00,69.1,21.0,28.62,SE,135,11.0,17.0,16,0.00,,,0.00,meteohub,2013-04-25 22:57:00,
2013-04-25 18:02:00,69.4,21.2,28.61,East,90,13.0,18.0,16,0.00,,,0.00,meteohub,2013-04-25 23:02:00,
2013-04-25 18:07:00,69.6,21.4,28.62,East,90,12.0,18.0,16,0.00,,,0.00,meteohub,2013-04-25 23:07:00,
2013-04-25 18:12:00,69.3,21.2,28.62,East,90,17.0,17.0,16,0.00,,,0.00,meteohub,2013-04-25 23:12:00,
2013-04-25 18:17:00,68.9,20.8,28.62,SE,135,11.0,18.0,16,0.00,,,0.00,meteohub,2013-04-25 23:17:00,
2013-04-25 18:22:00,68.5,21.9,28.62,SE,135,12.0,18.0,17,0.00,,,0.00,meteohub,2013-04-25 23:22:00,
2013-04-25 18:27:00,68.5,20.5,28.61,East,90,11.0,18.0,16,0.00,,,0.00,meteohub,2013-04-25 23:27:00,
2013-04-25 18:32:00,68.5,21.9,28.60,SE,135,8.0,16.0,17,0.00,,,0.00,meteohub,2013-04-25 23:32:00,
2013-04-25 18:37:00,68.5,20.5,28.60,ESE,113,12.0,15.0,16,0.00,,,0.00,meteohub,2013-04-25 23:37:00,
2013-04-25 18:42:00,68.7,22.1,28.59,East,90,11.0,17.0,17,0.00,,,0.00,meteohub,2013-04-25 23:42:00,
2013-04-25 18:47:00,68.7,22.1,28.61,SE,135,7.0,17.0,17,0.00,,,0.00,meteohub,2013-04-25 23:47:00,
2013-04-25 18:52:00,68.7,23.5,28.61,East,90,11.0,17.0,18,0.00,,,0.00,meteohub,2013-04-25 23:52:00,
2013-04-25 18:57:00,68.5,23.4,28.60,East,90,12.0,14.0,18,0.00,,,0.00,meteohub,2013-04-25 23:57:00,
2013-04-25 19:02:00,68.4,23.2,28.60,East,90,14.0,14.0,18,0.00,,,0.00,meteohub,2013-04-26 00:02:00,
2013-04-25 19:07:00,68.5,23.4,28.59,East,90,11.0,14.0,18,0.00,,,0.00,meteohub,2013-04-26 00:07:00,
2013-04-25 19:12:00,68.4,24.4,28.59,East,90,8.0,14.0,19,0.00,,,0.00,meteohub,2013-04-26 00:12:00,
2013-04-25 19:17:00,68.2,25.5,28.59,SE,135,11.0,14.0,20,0.00,,,0.00,meteohub,2013-04-26 00:17:00,
2013-04-25 19:22:00,68.2,25.5,28.58,East,90,8.0,14.0,20,0.00,,,0.00,meteohub,2013-04-26 00:22:00,
2013-04-25 19:27:00,67.8,26.4,28.57,East,90,8.0,14.0,21,0.00,,,0.00,meteohub,2013-04-26 00:27:00,
2013-04-25 19:32:00,67.8,26.4,28.57,East,90,11.0,14.0,21,0.00,,,0.00,meteohub,2013-04-26 00:32:00,
2013-04-25 19:37:00,67.6,26.2,28.58,East,90,9.0,14.0,21,0.00,,,0.00,meteohub,2013-04-26 00:37:00,
2013-04-25 19:42:00,67.3,26.1,28.58,East,90,12.0,14.0,21,0.00,,,0.00,meteohub,2013-04-26 00:42:00,
2013-04-25 19:47:00,66.9,26.8,28.58,East,90,8.0,15.0,22,0.00,,,0.00,meteohub,2013-04-26 00:47:00,
2013-04-25 19:52:00,66.9,26.8,28.58,SE,135,10.0,15.0,22,0.00,,,0.00,meteohub,2013-04-26 00:52:00,
2013-04-25 19:57:00,66.7,27.7,28.58,East,90,8.0,15.0,23,0.00,,,0.00,meteohub,2013-04-26 00:57:00,
2013-04-25 20:02:00,66.7,27.7,28.58,East,90,10.0,14.0,23,0.00,,,0.00,meteohub,2013-04-26 01:02:00,
2013-04-25 20:07:00,66.7,28.8,28.57,East,90,10.0,12.0,24,0.00,,,0.00,meteohub,2013-04-26 01:07:00,
2013-04-25 20:12:00,66.6,29.7,28.58,East,90,11.0,13.0,25,0.00,,,0.00,meteohub,2013-04-26 01:12:00,
2013-04-25 20:17:00,66.2,29.3,28.58,NE,45,8.0,15.0,25,0.00,,,0.00,meteohub,2013-04-26 01:17:00,
2013-04-25 20:22:00,66.0,30.2,28.58,East,90,10.0,15.0,26,0.00,,,0.00,meteohub,2013-04-26 01:22:00,
2013-04-25 20:27:00,66.0,30.2,28.58,East,90,10.0,15.0,26,0.00,,,0.00,meteohub,2013-04-26 01:27:00,
2013-04-25 20:32:00,65.7,30.7,28.58,East,90,9.0,15.0,27,0.00,,,0.00,meteohub,2013-04-26 01:32:00,
2013-04-25 20:37:00,65.8,31.8,28.58,East,90,8.0,15.0,28,0.00,,,0.00,meteohub,2013-04-26 01:37:00,
2013-04-25 20:42:00,65.3,32.2,28.58,East,90,8.0,15.0,29,0.00,,,0.00,meteohub,2013-04-26 01:42:00,
2013-04-25 20:47:00,65.3,33.1,28.58,East,90,6.0,14.0,30,0.00,,,0.00,meteohub,2013-04-26 01:47:00,
2013-04-25 20:52:00,64.8,33.4,28.59,SE,135,6.0,14.0,31,0.00,,,0.00,meteohub,2013-04-26 01:52:00,
2013-04-25 20:57:00,64.8,34.2,28.58,East,90,7.0,11.0,32,0.00,,,0.00,meteohub,2013-04-26 01:57:00,
2013-04-25 21:02:00,64.6,34.0,28.58,East,90,5.0,9.0,32,0.00,,,0.00,meteohub,2013-04-26 02:02:00,
2013-04-25 21:07:00,64.4,34.7,28.59,East,90,10.0,12.0,33,0.00,,,0.00,meteohub,2013-04-26 02:07:00,
2013-04-25 21:12:00,64.4,34.7,28.59,East,90,10.0,12.0,33,0.00,,,0.00,meteohub,2013-04-26 02:12:00,
2013-04-25 21:17:00,64.2,34.5,28.59,East,90,12.0,12.0,33,0.00,,,0.00,meteohub,2013-04-26 02:17:00,
2013-04-25 21:22:00,64.0,35.1,28.60,East,90,7.0,12.0,34,0.00,,,0.00,meteohub,2013-04-26 02:22:00,
2013-04-25 21:27:00,64.0,35.1,28.60,East,90,10.0,12.0,34,0.00,,,0.00,meteohub,2013-04-26 02:27:00,
2013-04-25 21:32:00,63.7,35.6,28.60,East,90,11.0,12.0,35,0.00,,,0.00,meteohub,2013-04-26 02:32:00,
2013-04-25 21:37:00,63.5,36.1,28.61,East,90,8.0,12.0,36,0.00,,,0.00,meteohub,2013-04-26 02:37:00,
2013-04-25 21:42:00,63.3,36.7,28.61,East,90,12.0,12.0,37,0.00,,,0.00,meteohub,2013-04-26 02:42:00,
2013-04-25 21:47:00,63.1,36.5,28.61,East,90,9.0,12.0,37,0.00,,,0.00,meteohub,2013-04-26 02:47:00,
2013-04-25 21:52:00,63.3,36.7,28.61,East,90,8.0,12.0,37,0.00,,,0.00,meteohub,2013-04-26 02:52:00,
2013-04-25 21:57:00,63.1,37.0,28.62,East,90,8.0,12.0,38,0.00,,,0.00,meteohub,2013-04-26 02:57:00,
2013-04-25 22:02:00,63.3,37.2,28.61,East,90,6.0,11.0,38,0.00,,,0.00,meteohub,2013-04-26 03:02:00,
2013-04-25 22:07:00,63.3,37.2,28.62,East,90,4.0,10.0,38,0.00,,,0.00,meteohub,2013-04-26 03:07:00,
2013-04-25 22:12:00,63.3,37.9,28.62,NE,45,9.0,9.0,39,0.00,,,0.00,meteohub,2013-04-26 03:12:00,
2013-04-25 22:17:00,63.3,37.9,28.63,SE,135,8.0,9.0,39,0.00,,,0.00,meteohub,2013-04-26 03:17:00,
2013-04-25 22:22:00,63.0,37.6,28.63,East,90,8.0,9.0,39,0.00,,,0.00,meteohub,2013-04-26 03:22:00,
2013-04-25 22:27:00,63.3,37.9,28.63,East,90,9.0,11.0,39,0.00,,,0.00,meteohub,2013-04-26 03:27:00,
2013-04-25 22:32:00,63.1,37.8,28.63,East,90,11.0,11.0,39,0.00,,,0.00,meteohub,2013-04-26 03:32:00,
2013-04-25 22:37:00,63.1,37.8,28.63,East,90,9.0,11.0,39,0.00,,,0.00,meteohub,2013-04-26 03:37:00,
2013-04-25 22:42:00,63.1,37.8,28.63,East,90,11.0,12.0,39,0.00,,,0.00,meteohub,2013-04-26 03:42:00,
2013-04-25 22:47:00,63.1,37.8,28.63,East,90,8.0,12.0,39,0.00,,,0.00,meteohub,2013-04-26 03:47:00,
2013-04-25 22:52:00,63.1,38.5,28.63,East,90,11.0,12.0,40,0.00,,,0.00,meteohub,2013-04-26 03:52:00,
2013-04-25 22:57:00,63.0,38.3,28.62,East,90,11.0,11.0,40,0.00,,,0.00,meteohub,2013-04-26 03:57:00,
2013-04-25 23:01:00,63.0,38.3,28.62,East,90,9.0,15.0,40,0.00,,,0.00,meteohub,2013-04-26 04:01:00,
2013-04-25 23:06:00,63.0,38.8,28.61,East,90,12.0,15.0,41,0.00,,,0.00,meteohub,2013-04-26 04:06:00,
2013-04-25 23:11:00,62.8,39.4,28.61,SE,135,11.0,15.0,42,0.00,,,0.00,meteohub,2013-04-26 04:11:00,
2013-04-25 23:16:00,62.4,39.0,28.61,East,90,10.0,15.0,42,0.00,,,0.00,meteohub,2013-04-26 04:16:00,
2013-04-25 23:21:00,62.1,39.4,28.61,SE,135,14.0,15.0,43,0.00,,,0.00,meteohub,2013-04-26 04:21:00,
2013-04-25 23:26:00,61.7,39.6,28.61,East,90,8.0,15.0,44,0.00,,,0.00,meteohub,2013-04-26 04:26:00,
2013-04-25 23:31:00,61.2,39.7,28.60,East,90,11.0,15.0,45,0.00,,,0.00,meteohub,2013-04-26 04:31:00,
2013-04-25 23:36:00,61.2,40.3,28.60,SE,135,8.0,15.0,46,0.00,,,0.00,meteohub,2013-04-26 04:36:00,
2013-04-25 23:41:00,61.2,40.3,28.60,East,90,13.0,13.0,46,0.00,,,0.00,meteohub,2013-04-26 04:41:00,
2013-04-25 23:46:00,61.3,40.5,28.60,SE,135,12.0,13.0,46,0.00,,,0.00,meteohub,2013-04-26 04:46:00,
2013-04-25 23:51:00,61.3,40.5,28.59,East,90,9.0,14.0,46,0.00,,,0.00,meteohub,2013-04-26 04:51:00,
2013-04-25 23:56:00,61.3,40.5,28.60,East,90,9.0,14.0,46,0.00,,,0.00,meteohub,2013-04-26 04:56:00,